createdAt,value
2023-04-14T00:00:51.983Z,23.38
2023-04-14T00:01:52.023Z,23.38
2023-04-14T00:02:52.251Z,23.38
2023-04-14T00:03:52.160Z,23.38
2023-04-14T00:04:52.187Z,23.40
2023-04-14T00:05:52.104Z,23.37
2023-04-14T00:06:52.138Z,23.37
2023-04-14T00:07:52.180Z,23.38
2023-04-14T00:08:52.268Z,23.38
2023-04-14T00:09:52.237Z,23.37
2023-04-14T00:10:52.246Z,23.37
2023-04-14T00:11:52.284Z,23.40
2023-04-14T00:12:52.302Z,23.35
2023-04-14T00:13:52.350Z,23.37
2023-04-14T00:14:52.351Z,23.37
2023-04-14T00:15:52.393Z,23.38
2023-04-14T00:16:52.464Z,23.37
2023-04-14T00:17:52.475Z,23.37
2023-04-14T00:18:52.454Z,23.37
2023-04-14T00:19:52.474Z,23.35
2023-04-14T00:20:52.544Z,23.35
2023-04-14T00:21:52.528Z,23.35
2023-04-14T00:22:52.578Z,23.35
2023-04-14T00:23:52.574Z,23.37
2023-04-14T00:24:52.586Z,23.35
2023-04-14T00:25:52.650Z,23.37
2023-04-14T00:26:52.643Z,23.37
2023-04-14T00:27:52.669Z,23.37
2023-04-14T00:28:52.737Z,23.35
2023-04-14T00:29:52.726Z,23.35
2023-04-14T00:30:52.807Z,23.37
2023-04-14T00:31:52.793Z,23.35
2023-04-14T00:32:52.862Z,23.34
2023-04-14T00:33:52.891Z,23.37
2023-04-14T00:34:52.871Z,23.34
2023-04-14T00:35:52.903Z,23.35
2023-04-14T00:36:52.933Z,23.34
2023-04-14T00:37:52.969Z,23.34
2023-04-14T00:38:52.980Z,23.35
2023-04-14T00:39:53.010Z,23.34
2023-04-14T00:40:53.061Z,23.32
2023-04-14T00:41:53.074Z,23.32
2023-04-14T00:42:53.120Z,23.35
2023-04-14T00:43:53.112Z,23.34
2023-04-14T00:44:53.140Z,23.32
2023-04-14T00:45:53.204Z,23.31
2023-04-14T00:46:53.254Z,23.34
2023-04-14T00:47:53.247Z,23.32
2023-04-14T00:48:53.253Z,23.32
2023-04-14T00:49:53.322Z,23.31
2023-04-14T00:50:53.344Z,23.32
2023-04-14T00:51:53.371Z,23.31
2023-04-14T00:52:53.390Z,23.31
2023-04-14T00:53:53.400Z,23.32
2023-04-14T00:54:53.438Z,23.30
2023-04-14T00:55:53.479Z,23.30
2023-04-14T00:56:53.508Z,23.32
2023-04-14T00:57:53.512Z,23.31
2023-04-14T00:58:53.554Z,23.32
2023-04-14T00:59:53.576Z,23.31
2023-04-14T01:00:53.694Z,23.32
2023-04-14T01:01:53.708Z,23.31
2023-04-14T01:02:53.742Z,23.31
2023-04-14T01:03:53.919Z,23.32
2023-04-14T01:04:54.847Z,23.31
2023-04-14T01:05:53.827Z,23.31
2023-04-14T01:06:53.832Z,23.30
2023-04-14T01:07:53.846Z,23.30
2023-04-14T01:08:53.869Z,23.31
2023-04-14T01:09:53.937Z,23.31
2023-04-14T01:10:53.952Z,23.28
2023-04-14T01:11:53.980Z,23.28
2023-04-14T01:12:54.018Z,23.28
2023-04-14T01:13:54.051Z,23.30
2023-04-14T01:14:54.078Z,23.28
2023-04-14T01:15:54.160Z,23.32
2023-04-14T01:16:54.186Z,23.31
2023-04-14T01:17:54.264Z,23.28
2023-04-14T01:18:54.230Z,23.27
2023-04-14T01:19:54.271Z,23.27
2023-04-14T01:20:54.342Z,23.28
2023-04-14T01:21:54.344Z,23.28
2023-04-14T01:22:54.377Z,23.27
2023-04-14T01:23:54.425Z,23.30
2023-04-14T01:24:54.445Z,23.28
2023-04-14T01:25:54.492Z,23.27
2023-04-14T01:26:54.538Z,23.28
2023-04-14T01:27:54.557Z,23.28
2023-04-14T01:28:54.599Z,23.28
2023-04-14T01:29:54.616Z,23.28
2023-04-14T01:30:54.654Z,23.27
2023-04-14T01:31:54.858Z,23.25
2023-04-14T01:32:54.732Z,23.25
2023-04-14T01:33:54.763Z,23.25
2023-04-14T01:34:54.799Z,23.27
2023-04-14T01:35:54.844Z,23.25
2023-04-14T01:36:54.893Z,23.25
2023-04-14T01:37:54.917Z,23.25
2023-04-14T01:38:54.984Z,23.24
2023-04-14T01:39:55.003Z,23.25
2023-04-14T01:40:55.063Z,23.27
2023-04-14T01:41:55.082Z,23.25
2023-04-14T01:42:55.111Z,23.27
2023-04-14T01:43:55.147Z,23.22
2023-04-14T01:44:55.186Z,23.22
2023-04-14T01:45:55.323Z,23.21
2023-04-14T01:46:55.271Z,23.22
2023-04-14T01:47:55.407Z,23.25
2023-04-14T01:48:55.375Z,23.21
2023-04-14T01:49:55.394Z,23.21
2023-04-14T01:50:55.448Z,23.22
2023-04-14T01:51:55.512Z,23.21
2023-04-14T01:52:55.503Z,23.24
2023-04-14T01:53:55.570Z,23.25
2023-04-14T01:54:55.631Z,23.24
2023-04-14T01:55:55.675Z,23.22
2023-04-14T01:56:55.677Z,23.24
2023-04-14T01:57:55.709Z,23.22
2023-04-14T01:58:55.761Z,23.22
2023-04-14T01:59:55.781Z,23.22
2023-04-14T02:00:55.822Z,23.21
2023-04-14T02:01:55.901Z,23.21
2023-04-14T02:02:56.002Z,23.21
2023-04-14T02:03:56.052Z,23.21
2023-04-14T02:04:55.999Z,23.21
2023-04-14T02:05:56.081Z,23.21
2023-04-14T02:06:56.091Z,23.20
2023-04-14T02:07:56.120Z,23.21
2023-04-14T02:08:56.159Z,23.20
2023-04-14T02:09:56.205Z,23.21
2023-04-14T02:10:56.260Z,23.22
2023-04-14T02:11:56.316Z,23.21
2023-04-14T02:12:56.323Z,23.22
2023-04-14T02:13:56.379Z,23.20
2023-04-14T02:14:56.420Z,23.21
2023-04-14T02:15:56.490Z,23.20
2023-04-14T02:16:56.621Z,23.18
2023-04-14T02:17:56.556Z,23.18
2023-04-14T02:18:56.597Z,23.20
2023-04-14T02:19:56.654Z,23.20
2023-04-14T02:20:56.708Z,23.18
2023-04-14T02:21:56.743Z,23.18
2023-04-14T02:22:56.792Z,23.18
2023-04-14T02:23:56.818Z,23.18
2023-04-14T02:24:56.880Z,23.20
2023-04-14T02:25:56.946Z,23.18
2023-04-14T02:26:56.972Z,23.18
2023-04-14T02:27:57.012Z,23.17
2023-04-14T02:28:57.052Z,23.17
2023-04-14T02:29:57.087Z,23.18
2023-04-14T02:30:57.175Z,23.21
2023-04-14T02:31:57.570Z,23.18
2023-04-14T02:32:57.282Z,23.18
2023-04-14T02:33:57.272Z,23.18
2023-04-14T02:34:57.353Z,23.17
2023-04-14T02:35:57.381Z,23.18
2023-04-14T02:36:57.446Z,23.17
2023-04-14T02:37:57.478Z,23.17
2023-04-14T02:38:57.546Z,23.17
2023-04-14T02:39:57.587Z,23.18
2023-04-14T02:40:57.623Z,23.17
2023-04-14T02:41:57.726Z,23.15
2023-04-14T02:42:57.732Z,23.18
2023-04-14T02:43:57.765Z,23.17
2023-04-14T02:44:57.823Z,23.17
2023-04-14T02:45:57.961Z,23.17
2023-04-14T02:46:57.945Z,23.18
2023-04-14T02:47:58.055Z,23.14
2023-04-14T02:48:58.053Z,23.17
2023-04-14T02:49:58.073Z,23.14
2023-04-14T02:50:58.152Z,23.17
2023-04-14T02:51:58.219Z,23.15
2023-04-14T02:52:58.225Z,23.15
2023-04-14T02:53:58.300Z,23.15
2023-04-14T02:54:58.324Z,23.17
2023-04-14T02:55:58.396Z,23.15
2023-04-14T02:56:58.463Z,23.18
2023-04-14T02:57:58.470Z,23.15
2023-04-14T02:58:58.648Z,23.14
2023-04-14T02:59:58.622Z,23.15
2023-04-14T03:00:58.625Z,23.15
2023-04-14T03:01:59.262Z,23.18
2023-04-14T03:02:58.800Z,23.15
2023-04-14T03:03:58.830Z,23.13
2023-04-14T03:04:58.818Z,23.14
2023-04-14T03:05:58.881Z,23.14
2023-04-14T03:06:58.959Z,23.15
2023-04-14T03:07:58.982Z,23.14
2023-04-14T03:08:59.272Z,23.15
2023-04-14T03:09:59.085Z,23.17
2023-04-14T03:10:59.139Z,23.18
2023-04-14T03:11:59.178Z,23.20
2023-04-14T03:12:59.218Z,23.18
2023-04-14T03:13:59.295Z,23.20
2023-04-14T03:14:59.313Z,23.22
2023-04-14T03:15:59.448Z,23.22
2023-04-14T03:16:59.419Z,23.24
2023-04-14T03:17:59.577Z,23.24
2023-04-14T03:18:59.643Z,23.25
2023-04-14T03:19:59.551Z,23.28
2023-04-14T03:20:59.569Z,23.27
2023-04-14T03:21:59.637Z,23.31
2023-04-14T03:22:59.689Z,23.30
2023-04-14T03:23:59.741Z,23.34
2023-04-14T03:24:59.736Z,23.32
2023-04-14T03:25:59.785Z,23.31
2023-04-14T03:26:59.841Z,23.31
2023-04-14T03:27:59.846Z,23.32
2023-04-14T03:29:00.102Z,23.34
2023-04-14T03:29:59.915Z,23.34
2023-04-14T03:30:59.969Z,23.32
2023-04-14T03:31:59.986Z,23.37
2023-04-14T03:33:00.076Z,23.35
2023-04-14T03:34:00.047Z,23.34
2023-04-14T03:35:00.063Z,23.35
2023-04-14T03:36:00.135Z,23.37
2023-04-14T03:37:00.140Z,23.35
2023-04-14T03:38:00.201Z,23.34
2023-04-14T03:39:00.331Z,23.37
2023-04-14T03:40:00.241Z,23.37
2023-04-14T03:41:00.269Z,23.37
2023-04-14T03:42:00.340Z,23.40
2023-04-14T03:43:00.340Z,23.38
2023-04-14T03:44:00.373Z,23.40
2023-04-14T03:45:00.413Z,23.40
2023-04-14T03:46:00.444Z,23.38
2023-04-14T03:47:00.586Z,23.37
2023-04-14T03:48:00.538Z,23.35
2023-04-14T03:49:00.743Z,23.40
2023-04-14T03:50:00.592Z,23.35
2023-04-14T03:51:00.638Z,23.35
2023-04-14T03:52:00.675Z,23.37
2023-04-14T03:53:00.704Z,23.35
2023-04-14T03:54:00.760Z,23.37
2023-04-14T03:55:00.807Z,23.37
2023-04-14T03:56:00.834Z,23.32
2023-04-14T03:57:00.883Z,23.35
2023-04-14T03:58:00.901Z,23.34
2023-04-14T03:59:01.248Z,23.34
2023-04-14T04:00:01.037Z,23.34
2023-04-14T04:01:01.017Z,23.34
2023-04-14T04:02:01.192Z,23.34
2023-04-14T04:03:01.405Z,23.35
2023-04-14T04:04:01.241Z,23.34
2023-04-14T04:05:01.296Z,23.34
2023-04-14T04:06:01.223Z,23.34
2023-04-14T04:07:01.235Z,23.32
2023-04-14T04:08:01.304Z,23.31
2023-04-14T04:09:01.530Z,23.32
2023-04-14T04:10:01.367Z,23.32
2023-04-14T04:11:01.458Z,23.32
2023-04-14T04:12:01.492Z,23.30
2023-04-14T04:13:01.605Z,23.32
2023-04-14T04:14:01.633Z,23.28
2023-04-14T04:15:01.585Z,23.30
2023-04-14T04:16:01.701Z,23.28
2023-04-14T04:17:01.683Z,23.30
2023-04-14T04:18:01.759Z,23.28
2023-04-14T04:19:01.984Z,23.28
2023-04-14T04:20:01.790Z,23.25
2023-04-14T04:21:02.178Z,23.30
2023-04-14T04:22:01.868Z,23.28
2023-04-14T04:23:01.896Z,23.30
2023-04-14T04:24:01.944Z,23.30
2023-04-14T04:25:01.950Z,23.25
2023-04-14T04:26:02.053Z,23.28
2023-04-14T04:27:02.071Z,23.25
2023-04-14T04:28:02.095Z,23.25
2023-04-14T04:29:02.342Z,23.25
2023-04-14T04:30:02.174Z,23.24
2023-04-14T04:31:02.228Z,23.25
2023-04-14T04:32:02.376Z,23.25
2023-04-14T04:33:02.314Z,23.22
2023-04-14T04:34:02.371Z,23.22
2023-04-14T04:35:02.380Z,23.24
2023-04-14T04:36:02.488Z,23.25
2023-04-14T04:37:02.489Z,23.22
2023-04-14T04:38:02.527Z,23.22
2023-04-14T04:39:02.792Z,23.25
2023-04-14T04:40:02.694Z,23.22
2023-04-14T04:41:02.634Z,23.22
2023-04-14T04:42:02.666Z,23.21
2023-04-14T04:43:02.748Z,23.20
2023-04-14T04:44:02.782Z,23.22
2023-04-14T04:45:02.792Z,23.22
2023-04-14T04:46:02.827Z,23.22
2023-04-14T04:47:02.902Z,23.22
2023-04-14T04:48:02.993Z,23.22
2023-04-14T04:49:03.326Z,23.27
2023-04-14T04:50:02.992Z,23.25
2023-04-14T04:51:03.026Z,23.28
2023-04-14T04:52:03.117Z,23.30
2023-04-14T04:53:03.103Z,23.30
2023-04-14T04:54:03.121Z,23.34
2023-04-14T04:55:03.187Z,23.35
2023-04-14T04:56:03.177Z,23.37
2023-04-14T04:57:03.225Z,23.40
2023-04-14T04:58:03.261Z,23.40
2023-04-14T04:59:03.392Z,23.42
2023-04-14T05:00:03.326Z,23.45
2023-04-14T05:01:03.396Z,23.47
2023-04-14T05:02:03.396Z,23.51
2023-04-14T05:03:03.599Z,23.51
2023-04-14T05:04:03.389Z,23.54
2023-04-14T05:05:03.384Z,23.54
2023-04-14T05:06:03.408Z,23.58
2023-04-14T05:07:03.399Z,23.58
2023-04-14T05:08:03.444Z,23.60
2023-04-14T05:09:03.423Z,23.62
2023-04-14T05:10:03.453Z,23.62
2023-04-14T05:11:03.448Z,23.62
2023-04-14T05:12:03.430Z,23.65
2023-04-14T05:13:03.475Z,23.65
2023-04-14T05:14:03.444Z,23.69
2023-04-14T05:15:03.531Z,23.68
2023-04-14T05:16:03.568Z,23.71
2023-04-14T05:17:03.459Z,23.71
2023-04-14T05:18:03.504Z,23.72
2023-04-14T05:19:03.685Z,23.72
2023-04-14T05:20:03.483Z,23.73
2023-04-14T05:21:03.491Z,23.75
2023-04-14T05:22:03.513Z,23.75
2023-04-14T05:23:03.462Z,23.75
2023-04-14T05:24:03.487Z,23.78
2023-04-14T05:25:03.475Z,23.73
2023-04-14T05:26:22.385Z,23.78
2023-04-14T05:28:03.554Z,23.79
2023-04-14T05:29:03.634Z,23.85
2023-04-14T05:30:03.434Z,23.83
2023-04-14T05:31:03.557Z,23.85
2023-04-14T05:32:03.429Z,23.86
2023-04-14T05:33:03.529Z,23.88
2023-04-14T05:34:03.653Z,23.92
2023-04-14T05:35:03.397Z,23.93
2023-04-14T05:36:03.387Z,23.92
2023-04-14T05:37:03.392Z,23.88
2023-04-14T05:38:03.387Z,23.93
2023-04-14T05:39:03.367Z,23.92
2023-04-14T05:40:03.383Z,23.98
2023-04-14T05:41:03.674Z,23.98
2023-04-14T05:42:03.361Z,24.05
2023-04-14T05:43:03.538Z,24.09
2023-04-14T05:44:03.736Z,24.12
2023-04-14T05:45:03.340Z,24.16
2023-04-14T05:46:03.506Z,24.17
2023-04-14T05:47:03.548Z,24.19
2023-04-14T05:48:03.546Z,24.22
2023-04-14T05:49:03.718Z,24.27
2023-04-14T05:50:03.583Z,24.26
2023-04-14T05:51:03.620Z,24.27
2023-04-14T05:52:03.724Z,24.30
2023-04-14T05:53:03.684Z,24.32
2023-04-14T05:54:03.976Z,24.37
2023-04-14T05:55:03.849Z,24.37
2023-04-14T05:56:03.845Z,24.39
2023-04-14T05:57:03.803Z,24.39
2023-04-14T05:58:03.832Z,24.42
2023-04-14T05:59:03.934Z,24.42
2023-04-14T06:00:03.931Z,24.42
2023-04-14T06:01:03.991Z,24.43
2023-04-14T06:02:04.048Z,24.44
2023-04-14T06:03:04.161Z,24.47
2023-04-14T06:04:04.550Z,24.46
2023-04-14T06:05:04.079Z,24.49
2023-04-14T06:06:03.928Z,24.47
2023-04-14T06:07:03.963Z,24.50
2023-04-14T06:08:04.002Z,24.52
2023-04-14T06:09:04.036Z,24.49
2023-04-14T06:10:03.941Z,24.53
2023-04-14T06:11:03.934Z,24.53
2023-04-14T06:12:03.947Z,24.55
2023-04-14T06:13:03.936Z,24.55
2023-04-14T06:14:03.930Z,24.56
2023-04-14T06:15:03.934Z,24.57
2023-04-14T06:16:03.975Z,24.60
2023-04-14T06:17:03.919Z,24.60
2023-04-14T06:18:03.949Z,24.60
2023-04-14T06:19:04.217Z,24.63
2023-04-14T06:20:03.992Z,24.64
2023-04-14T06:21:03.953Z,24.68
2023-04-14T06:22:03.995Z,24.70
2023-04-14T06:23:03.990Z,24.68
2023-04-14T06:24:04.060Z,24.71
2023-04-14T06:25:04.070Z,24.71
2023-04-14T06:26:04.094Z,24.73
2023-04-14T06:27:04.181Z,24.76
2023-04-14T06:28:04.241Z,24.74
2023-04-14T06:29:04.411Z,24.76
2023-04-14T06:30:04.365Z,24.77
2023-04-14T06:31:04.426Z,24.78
2023-04-14T06:32:04.504Z,24.78
2023-04-14T06:33:04.738Z,24.83
2023-04-14T06:34:04.601Z,24.80
2023-04-14T06:35:04.641Z,24.84
2023-04-14T06:36:04.748Z,24.86
2023-04-14T06:37:04.756Z,24.87
2023-04-14T06:38:04.802Z,24.93
2023-04-14T06:39:04.900Z,24.94
2023-04-14T06:40:04.955Z,24.95
2023-04-14T06:41:05.033Z,25.01
2023-04-14T06:42:05.067Z,25.03
2023-04-14T06:43:05.101Z,25.03
2023-04-14T06:44:05.162Z,25.06
2023-04-14T06:45:05.185Z,25.07
2023-04-14T06:46:05.253Z,25.07
2023-04-14T06:47:05.225Z,25.06
2023-04-14T06:48:05.271Z,25.10
2023-04-14T06:49:05.235Z,25.11
2023-04-14T06:50:05.221Z,25.10
2023-04-14T06:51:05.261Z,25.10
2023-04-14T06:52:05.249Z,25.13
2023-04-14T06:53:05.238Z,25.13
2023-04-14T06:54:05.399Z,25.11
2023-04-14T06:55:05.239Z,25.14
2023-04-14T06:56:05.244Z,25.11
2023-04-14T06:57:05.333Z,25.13
2023-04-14T06:58:05.320Z,25.11
2023-04-14T06:59:05.265Z,25.11
2023-04-14T07:00:05.289Z,25.13
2023-04-14T07:01:05.325Z,25.11
2023-04-14T07:02:05.287Z,25.13
2023-04-14T07:03:05.383Z,25.13
2023-04-14T07:04:07.725Z,25.08
2023-04-14T07:05:05.482Z,25.13
2023-04-14T07:06:05.357Z,25.10
2023-04-14T07:07:05.305Z,25.10
2023-04-14T07:08:05.274Z,25.10
2023-04-14T07:09:05.253Z,25.11
2023-04-14T07:10:05.315Z,25.08
2023-04-14T07:11:05.248Z,25.08
2023-04-14T07:12:05.237Z,25.10
2023-04-14T07:13:05.280Z,25.06
2023-04-14T07:14:05.275Z,25.10
2023-04-14T07:15:05.242Z,25.07
2023-04-14T07:16:05.259Z,25.10
2023-04-14T07:17:05.192Z,25.06
2023-04-14T07:18:05.233Z,25.10
2023-04-14T07:19:05.203Z,25.07
2023-04-14T07:20:05.184Z,25.07
2023-04-14T07:21:05.233Z,25.07
2023-04-14T07:22:05.165Z,25.07
2023-04-14T07:23:05.156Z,25.07
2023-04-14T07:24:05.318Z,25.06
2023-04-14T07:25:05.171Z,25.06
2023-04-14T07:26:05.155Z,25.06
2023-04-14T07:27:05.145Z,25.03
2023-04-14T07:28:05.171Z,25.06
2023-04-14T07:29:05.173Z,25.03
2023-04-14T07:30:05.112Z,25.01
2023-04-14T07:31:05.245Z,25.01
2023-04-14T07:32:05.183Z,25.04
2023-04-14T07:33:05.280Z,25.04
2023-04-14T07:34:05.096Z,25.04
2023-04-14T07:35:05.698Z,25.03
2023-04-14T07:36:05.260Z,24.98
2023-04-14T07:37:05.062Z,24.80
2023-04-14T07:38:05.049Z,24.60
2023-04-14T07:39:05.124Z,24.35
2023-04-14T07:40:05.047Z,24.06
2023-04-14T07:41:05.108Z,23.83
2023-04-14T07:42:05.028Z,23.64
2023-04-14T07:43:05.026Z,23.57
2023-04-14T07:44:05.018Z,23.57
2023-04-14T07:45:05.011Z,23.58
2023-04-14T07:46:05.282Z,23.60
2023-04-14T07:47:05.005Z,23.68
2023-04-14T07:48:05.015Z,23.76
2023-04-14T07:49:05.018Z,23.86
2023-04-14T07:50:04.974Z,23.93
2023-04-14T07:51:05.075Z,24.02
2023-04-14T07:52:04.998Z,24.09
2023-04-14T07:53:04.946Z,24.16
2023-04-14T07:54:04.958Z,24.26
2023-04-14T07:55:04.961Z,24.33
2023-04-14T07:56:04.931Z,24.40
2023-04-14T07:57:04.949Z,24.46
2023-04-14T07:58:04.939Z,24.52
2023-04-14T07:59:04.953Z,24.59
2023-04-14T08:00:04.967Z,24.64
2023-04-14T08:01:04.899Z,24.67
2023-04-14T08:02:05.019Z,24.73
2023-04-14T08:03:05.068Z,24.77
2023-04-14T08:04:05.041Z,24.81
2023-04-14T08:05:04.918Z,24.87
2023-04-14T08:06:04.886Z,24.86
2023-04-14T08:07:04.849Z,24.90
2023-04-14T08:08:04.936Z,24.88
2023-04-14T08:09:04.850Z,24.90
2023-04-14T08:10:04.862Z,24.95
2023-04-14T08:11:04.840Z,24.97
2023-04-14T08:12:04.818Z,25.00
2023-04-14T08:13:04.885Z,25.04
2023-04-14T08:14:04.872Z,25.06
2023-04-14T08:15:04.928Z,25.06
2023-04-14T08:16:04.931Z,25.08
2023-04-14T08:17:04.956Z,25.11
2023-04-14T08:18:04.979Z,25.11
2023-04-14T08:19:05.367Z,25.10
2023-04-14T08:20:04.979Z,25.08
2023-04-14T08:21:04.979Z,25.08
2023-04-14T08:22:04.991Z,25.06
2023-04-14T08:23:05.015Z,25.06
2023-04-14T08:24:05.040Z,25.06
2023-04-14T08:25:05.222Z,25.06
2023-04-14T08:26:05.072Z,25.04
2023-04-14T08:27:05.101Z,25.00
2023-04-14T08:28:05.118Z,24.97
2023-04-14T08:29:05.136Z,24.98
2023-04-14T08:30:05.170Z,24.95
2023-04-14T08:31:05.173Z,25.00
2023-04-14T08:32:05.297Z,25.03
2023-04-14T08:33:05.298Z,25.06
2023-04-14T08:34:05.229Z,25.07
2023-04-14T08:35:37.096Z,24.88
2023-04-14T08:36:06.240Z,24.91
2023-04-14T08:37:05.326Z,24.83
2023-04-14T08:38:05.213Z,24.80
2023-04-14T08:39:05.225Z,24.78
2023-04-14T08:40:05.237Z,24.78
2023-04-14T08:41:05.213Z,24.80
2023-04-14T08:42:05.741Z,24.64
2023-04-14T08:43:05.299Z,24.52
2023-04-14T08:44:05.381Z,24.33
2023-04-14T08:45:05.438Z,24.26
2023-04-14T08:46:05.503Z,24.25
2023-04-14T08:47:05.809Z,24.25
2023-04-14T08:48:05.751Z,24.29
2023-04-14T08:49:05.654Z,24.33
2023-04-14T08:50:06.240Z,24.40
2023-04-14T08:51:05.797Z,24.46
2023-04-14T08:52:05.769Z,24.56
2023-04-14T08:53:05.800Z,24.60
2023-04-14T08:54:05.857Z,24.67
2023-04-14T08:55:06.283Z,24.71
2023-04-14T08:56:05.890Z,24.77
2023-04-14T08:57:06.740Z,24.81
2023-04-14T08:58:05.893Z,24.86
2023-04-14T08:59:05.900Z,24.88
2023-04-14T09:00:06.012Z,24.91
2023-04-14T09:01:05.968Z,24.94
2023-04-14T09:02:05.989Z,24.97
2023-04-14T09:03:05.994Z,25.00
2023-04-14T09:04:06.137Z,25.01
2023-04-14T09:05:05.937Z,25.01
2023-04-14T09:06:05.980Z,25.07
2023-04-14T09:07:06.052Z,25.07
2023-04-14T09:08:06.147Z,25.10
2023-04-14T09:09:06.189Z,25.11
2023-04-14T09:10:06.336Z,25.10
2023-04-14T09:11:06.330Z,25.11
2023-04-14T09:12:06.764Z,25.17
2023-04-14T09:13:06.409Z,25.15
2023-04-14T09:14:06.507Z,25.18
2023-04-14T09:15:06.508Z,25.18
2023-04-14T09:16:06.559Z,25.22
2023-04-14T09:17:06.781Z,25.22
2023-04-14T09:18:06.686Z,25.21
2023-04-14T09:19:07.464Z,25.24
2023-04-14T09:20:34.613Z,25.27
2023-04-14T09:21:50.472Z,25.25
2023-04-14T09:22:07.722Z,25.25
2023-04-14T09:23:06.679Z,25.27
2023-04-14T09:24:06.711Z,25.28
2023-04-14T09:25:06.678Z,25.30
2023-04-14T09:26:06.680Z,25.31
2023-04-14T09:27:06.669Z,25.34
2023-04-14T09:28:06.678Z,25.40
2023-04-14T09:29:06.751Z,25.40
2023-04-14T09:30:06.688Z,25.44
2023-04-14T09:31:06.693Z,25.44
2023-04-14T09:32:06.675Z,25.44
2023-04-14T09:33:06.850Z,25.46
2023-04-14T09:34:06.684Z,25.49
2023-04-14T09:35:06.608Z,25.51
2023-04-14T09:36:06.755Z,25.45
2023-04-14T09:37:06.796Z,25.37
2023-04-14T09:38:06.598Z,25.25
2023-04-14T09:39:06.593Z,25.10
2023-04-14T09:40:06.607Z,24.94
2023-04-14T09:41:06.769Z,24.80
2023-04-14T09:42:06.573Z,24.68
2023-04-14T09:43:06.574Z,24.57
2023-04-14T09:44:06.568Z,24.47
2023-04-14T09:45:06.570Z,24.35
2023-04-14T09:46:06.780Z,24.30
2023-04-14T09:47:07.324Z,24.33
2023-04-14T09:48:06.545Z,24.36
2023-04-14T09:49:06.525Z,24.40
2023-04-14T09:50:06.534Z,24.47
2023-04-14T09:51:06.608Z,24.53
2023-04-14T09:52:06.519Z,24.60
2023-04-14T09:53:06.497Z,24.64
2023-04-14T09:54:06.866Z,24.70
2023-04-14T09:55:06.490Z,24.71
2023-04-14T09:56:06.536Z,24.77
2023-04-14T09:57:06.479Z,24.84
2023-04-14T09:58:06.473Z,24.87
2023-04-14T09:59:06.618Z,24.90
2023-04-14T10:00:06.457Z,24.95
2023-04-14T10:01:06.525Z,24.98
2023-04-14T10:02:06.634Z,25.00
2023-04-14T10:03:06.650Z,25.07
2023-04-14T10:04:06.658Z,25.10
2023-04-14T10:05:06.851Z,25.17
2023-04-14T10:06:06.760Z,25.22
2023-04-14T10:07:06.932Z,25.24
2023-04-14T10:08:06.895Z,25.25
2023-04-14T10:09:06.957Z,25.28
2023-04-14T10:10:06.969Z,25.31
2023-04-14T10:11:07.039Z,25.31
2023-04-14T10:12:09.097Z,25.34
2023-04-14T10:13:09.801Z,25.38
2023-04-14T10:14:07.058Z,25.40
2023-04-14T10:15:07.057Z,25.42
2023-04-14T10:16:07.108Z,25.44
2023-04-14T10:17:07.066Z,25.44
2023-04-14T10:18:07.043Z,25.48
2023-04-14T10:19:07.247Z,25.49
2023-04-14T10:20:07.031Z,25.49
2023-04-14T10:21:07.021Z,25.52
2023-04-14T10:22:07.030Z,25.53
2023-04-14T10:23:07.001Z,25.57
2023-04-14T10:24:07.780Z,25.61
2023-04-14T10:25:07.029Z,25.60
2023-04-14T10:26:07.291Z,25.61
2023-04-14T10:27:07.346Z,25.64
2023-04-14T10:28:07.066Z,25.64
2023-04-14T10:29:06.996Z,25.68
2023-04-14T10:30:06.938Z,25.64
2023-04-14T10:31:06.947Z,25.71
2023-04-14T10:32:07.416Z,25.72
2023-04-14T10:33:07.001Z,25.71
2023-04-14T10:34:06.947Z,25.66
2023-04-14T10:35:06.923Z,25.62
2023-04-14T10:36:06.929Z,25.62
2023-04-14T10:37:07.415Z,25.58
2023-04-14T10:38:06.988Z,25.48
2023-04-14T10:39:06.890Z,25.48
2023-04-14T10:40:07.114Z,25.42
2023-04-14T10:41:07.919Z,25.45
2023-04-14T10:42:07.325Z,25.40
2023-04-14T10:43:06.855Z,25.35
2023-04-14T10:44:06.857Z,25.34
2023-04-14T10:45:06.893Z,25.32
2023-04-14T10:46:06.863Z,25.30
2023-04-14T10:47:06.924Z,25.17
2023-04-14T10:48:06.913Z,25.15
2023-04-14T10:49:06.865Z,25.17
2023-04-14T10:50:06.800Z,25.18
2023-04-14T10:51:06.906Z,25.14
2023-04-14T10:52:06.810Z,25.13
2023-04-14T10:53:07.307Z,25.08
2023-04-14T10:54:06.967Z,25.04
2023-04-14T10:55:06.789Z,25.03
2023-04-14T10:56:06.791Z,25.07
2023-04-14T10:57:06.804Z,25.07
2023-04-14T10:58:06.770Z,25.11
2023-04-14T10:59:06.781Z,25.17
2023-04-14T11:00:06.776Z,25.21
2023-04-14T11:01:06.788Z,25.24
2023-04-14T11:02:06.875Z,25.28
2023-04-14T11:03:06.906Z,25.34
2023-04-14T11:04:06.839Z,25.38
2023-04-14T11:05:06.868Z,25.44
2023-04-14T11:06:06.823Z,25.46
2023-04-14T11:07:06.702Z,25.52
2023-04-14T11:08:06.827Z,25.52
2023-04-14T11:09:06.693Z,25.60
2023-04-14T11:10:06.786Z,25.62
2023-04-14T11:11:06.779Z,25.66
2023-04-14T11:12:06.872Z,25.66
2023-04-14T11:13:07.365Z,25.71
2023-04-14T11:14:06.966Z,25.75
2023-04-14T11:15:06.953Z,25.73
2023-04-14T11:16:07.482Z,25.82
2023-04-14T11:17:07.109Z,25.81
2023-04-14T11:18:07.144Z,25.85
2023-04-14T11:19:07.087Z,25.85
2023-04-14T11:20:07.169Z,25.83
2023-04-14T11:21:07.224Z,25.85
2023-04-14T11:22:07.188Z,25.88
2023-04-14T11:23:07.254Z,25.92
2023-04-14T11:24:07.319Z,25.89
2023-04-14T11:25:07.362Z,25.91
2023-04-14T11:26:07.805Z,25.89
2023-04-14T11:27:07.401Z,25.88
2023-04-14T11:28:07.470Z,25.89
2023-04-14T11:29:07.542Z,25.86
2023-04-14T11:30:07.706Z,25.82
2023-04-14T11:31:07.838Z,25.82
2023-04-14T11:32:07.731Z,25.75
2023-04-14T11:33:07.824Z,25.78
2023-04-14T11:34:07.820Z,25.75
2023-04-14T11:35:07.916Z,25.69
2023-04-14T11:36:08.353Z,25.71
2023-04-14T11:37:07.991Z,25.69
2023-04-14T11:38:08.345Z,25.71
2023-04-14T11:39:09.827Z,25.68
2023-04-14T11:40:08.140Z,25.68
2023-04-14T11:41:08.298Z,25.65
2023-04-14T11:42:08.281Z,25.64
2023-04-14T11:43:08.380Z,25.64
2023-04-14T11:44:08.419Z,25.58
2023-04-14T11:45:08.493Z,25.58
2023-04-14T11:46:08.890Z,25.51
2023-04-14T11:47:08.604Z,25.49
2023-04-14T11:48:08.639Z,25.51
2023-04-14T11:49:08.709Z,25.48
2023-04-14T11:50:08.826Z,25.45
2023-04-14T11:51:08.777Z,25.46
2023-04-14T11:52:08.773Z,25.42
2023-04-14T11:53:08.817Z,25.41
2023-04-14T11:54:08.853Z,25.42
2023-04-14T11:55:08.853Z,25.42
2023-04-14T11:56:08.856Z,25.42
2023-04-14T11:57:08.860Z,25.40
2023-04-14T11:58:08.908Z,25.35
2023-04-14T11:59:08.973Z,25.38
2023-04-14T12:00:09.033Z,25.38
2023-04-14T12:01:08.984Z,25.34
2023-04-14T12:02:09.131Z,25.34
2023-04-14T12:03:09.233Z,25.34
2023-04-14T12:04:09.176Z,25.32
2023-04-14T12:05:09.140Z,25.32
2023-04-14T12:06:09.031Z,25.30
2023-04-14T12:07:08.990Z,25.30
2023-04-14T12:08:09.044Z,25.31
2023-04-14T12:09:09.014Z,25.30
2023-04-14T12:10:09.004Z,25.25
2023-04-14T12:11:08.963Z,25.27
2023-04-14T12:12:08.961Z,25.31
2023-04-14T12:13:08.965Z,25.27
2023-04-14T12:14:08.965Z,25.28
2023-04-14T12:15:08.943Z,25.30
2023-04-14T12:16:08.989Z,25.25
2023-04-14T12:17:08.969Z,25.25
2023-04-14T12:18:08.970Z,25.27
2023-04-14T12:19:08.937Z,25.27
2023-04-14T12:20:08.917Z,25.27
2023-04-14T12:21:11.677Z,25.28
2023-04-14T12:22:08.889Z,25.28
2023-04-14T12:23:08.888Z,25.25
2023-04-14T12:24:08.883Z,25.27
2023-04-14T12:25:08.913Z,25.27
2023-04-14T12:26:08.857Z,25.25
2023-04-14T12:27:08.857Z,25.28
2023-04-14T12:28:08.895Z,25.25
2023-04-14T12:29:08.864Z,25.28
2023-04-14T12:30:08.873Z,25.27
2023-04-14T12:31:08.878Z,25.27
2023-04-14T12:32:08.871Z,25.24
2023-04-14T12:33:08.793Z,25.28
2023-04-14T12:34:08.804Z,25.27
2023-04-14T12:35:08.791Z,25.30
2023-04-14T12:36:08.823Z,25.30
2023-04-14T12:37:08.802Z,25.31
2023-04-14T12:38:08.782Z,25.30
2023-04-14T12:39:08.840Z,25.32
2023-04-14T12:40:10.647Z,25.34
2023-04-14T12:41:08.768Z,25.32
2023-04-14T12:42:08.747Z,25.32
2023-04-14T12:43:08.749Z,25.30
2023-04-14T12:44:08.809Z,25.34
2023-04-14T12:45:08.742Z,25.32
2023-04-14T12:46:08.734Z,25.34
2023-04-14T12:47:08.824Z,25.32
2023-04-14T12:48:08.826Z,25.34
2023-04-14T12:49:08.713Z,25.32
2023-04-14T12:50:08.699Z,25.34
2023-04-14T12:51:09.442Z,25.31
2023-04-14T12:52:08.936Z,25.32
2023-04-14T12:53:08.663Z,25.32
2023-04-14T12:54:08.660Z,25.32